KETN/ETN METAR and TAF weather

Enter ICAO airport designator
Station Type Date Time Source
KETN METAR 2020/09/20 00:35 UTC NOAA

KETN 200035Z AUTO 07003KT 7SM CLR 21/14 A3012 RMK AO2 T02120141


Station Type Date Time Source
KETN Decoded METAR 2020/09/20 00:35 UTC NOAA

Station name not available
Sep 19, 2020 - 08:35 PM EDT / 2020.09.20 0035 UTC
Wind: from the ENE (070 degrees) at 3 MPH (3 KT):0
Visibility: 7 mile(s):0
Sky conditions: clear
Temperature: 70.2 F (21.2 C)
Dew Point: 57.4 F (14.1 C)
Relative Humidity: 63%
Pressure (altimeter): 30.12 in. Hg (1019 hPa)
ob: KETN 200035Z AUTO 07003KT 7SM CLR 21/14 A3012 RMK AO2 T02120141
cycle: 0

Station Type Date Time Source
KETN TAF UTC NOAA

Error!

Example: see airport list